createdAt,value
2018-07-16T00:00:13.458Z,51.54
2018-07-16T00:02:41.353Z,54.90
2018-07-16T00:05:09.251Z,53.72
2018-07-16T00:07:37.111Z,52.01
2018-07-16T00:10:05.070Z,51.44
2018-07-16T00:12:32.812Z,51.75
2018-07-16T00:15:00.582Z,51.19
2018-07-16T00:17:28.403Z,50.96
2018-07-16T00:19:56.227Z,51.81
2018-07-16T00:22:23.971Z,51.25
2018-07-16T00:24:51.784Z,52.95
2018-07-16T00:27:19.639Z,51.22
2018-07-16T00:29:47.399Z,53.34
2018-07-16T00:32:15.130Z,53.41
2018-07-16T00:34:42.956Z,51.45
2018-07-16T00:37:10.735Z,50.66
2018-07-16T00:39:38.550Z,49.93
2018-07-16T00:42:06.345Z,50.15
2018-07-16T00:44:34.143Z,52.63
2018-07-16T00:47:01.940Z,54.13
2018-07-16T00:49:29.747Z,50.11
2018-07-16T00:51:57.583Z,50.58
2018-07-16T00:54:25.383Z,53.05
2018-07-16T00:56:53.215Z,51.87
2018-07-16T00:59:21.121Z,52.88
2018-07-16T01:01:48.967Z,51.33
2018-07-16T01:04:16.720Z,51.23
2018-07-16T01:06:44.463Z,51.56
2018-07-16T01:09:12.311Z,51.05
2018-07-16T01:11:40.149Z,50.79
2018-07-16T01:14:07.991Z,52.02
2018-07-16T01:16:35.803Z,54.94
2018-07-16T01:19:03.648Z,55.29
2018-07-16T01:21:31.423Z,54.29
2018-07-16T01:23:59.228Z,56.68
2018-07-16T01:26:26.994Z,59.09
2018-07-16T01:28:54.827Z,60.47
2018-07-16T01:31:22.609Z,55.88
2018-07-16T01:33:50.373Z,56.30
2018-07-16T01:36:18.215Z,60.07
2018-07-16T01:38:46.017Z,60.04
2018-07-16T01:41:13.856Z,62.42
2018-07-16T01:43:41.675Z,58.68
2018-07-16T01:46:09.489Z,61.51
2018-07-16T01:48:37.288Z,62.50
2018-07-16T01:51:05.023Z,61.13
2018-07-16T01:53:32.819Z,60.82
2018-07-16T01:56:00.752Z,61.97
2018-07-16T01:58:28.526Z,59.73
2018-07-16T02:00:59.650Z,61.68
2018-07-16T02:03:29.483Z,63.62
2018-07-16T02:05:57.300Z,64.01
2018-07-16T02:08:25.743Z,62.43
2018-07-16T02:10:53.964Z,62.25
2018-07-16T02:13:22.018Z,66.05
2018-07-16T02:15:50.093Z,64.28
2018-07-16T02:18:17.971Z,64.25
2018-07-16T02:20:46.423Z,65.65
2018-07-16T02:23:14.270Z,65.87
2018-07-16T02:25:42.013Z,64.79
2018-07-16T02:28:10.812Z,63.95
2018-07-16T02:30:39.337Z,61.93
2018-07-16T02:33:07.711Z,64.24
2018-07-16T02:35:35.476Z,62.11
2018-07-16T02:38:03.355Z,65.21
2018-07-16T02:40:31.243Z,65.93
2018-07-16T02:42:59.032Z,65.10
2018-07-16T02:45:27.099Z,66.05
2018-07-16T02:47:55.124Z,65.61
2018-07-16T02:50:22.929Z,63.17
2018-07-16T02:52:50.740Z,64.05
2018-07-16T02:55:18.561Z,61.45
2018-07-16T02:57:46.396Z,62.14
2018-07-16T03:00:14.213Z,64.60
2018-07-16T03:02:42.039Z,64.01
2018-07-16T03:05:15.528Z,66.47
2018-07-16T03:07:44.208Z,66.83
2018-07-16T03:10:12.307Z,65.91
2018-07-16T03:12:40.251Z,64.30
2018-07-16T03:15:08.047Z,66.79
2018-07-16T03:17:35.813Z,65.88
2018-07-16T03:20:03.941Z,68.40
2018-07-16T03:22:31.735Z,66.60
2018-07-16T03:24:59.519Z,65.72
2018-07-16T03:27:27.292Z,65.92
2018-07-16T03:29:55.255Z,62.74
2018-07-16T03:32:23.300Z,62.40
2018-07-16T03:34:51.095Z,65.90
2018-07-16T03:37:18.879Z,65.70
2018-07-16T03:39:46.690Z,66.87
2018-07-16T03:42:14.519Z,68.92
2018-07-16T03:44:42.290Z,64.53
2018-07-16T03:47:10.079Z,65.44
2018-07-16T03:49:37.891Z,64.74
2018-07-16T03:52:05.788Z,60.65
2018-07-16T03:54:33.715Z,61.30
2018-07-16T03:57:01.553Z,59.80
2018-07-16T03:59:29.419Z,59.17
2018-07-16T04:01:57.201Z,60.30
2018-07-16T04:04:25.024Z,60.21
2018-07-16T04:06:52.811Z,62.04
2018-07-16T04:09:20.627Z,65.61
2018-07-16T04:11:48.459Z,64.06
2018-07-16T04:14:16.223Z,60.57
2018-07-16T04:16:44.033Z,59.95
2018-07-16T04:19:11.967Z,59.59
2018-07-16T04:21:39.760Z,60.24
2018-07-16T04:24:07.665Z,59.09
2018-07-16T04:26:35.472Z,61.98
2018-07-16T04:29:03.249Z,65.64
2018-07-16T04:31:31.068Z,60.64
2018-07-16T04:33:58.878Z,61.22
2018-07-16T04:36:26.675Z,61.61
2018-07-16T04:38:54.459Z,66.14
2018-07-16T04:41:22.248Z,61.68
2018-07-16T04:43:50.115Z,62.17
2018-07-16T04:46:17.964Z,60.10
2018-07-16T04:48:45.747Z,60.88
2018-07-16T04:51:13.704Z,60.53
2018-07-16T04:53:41.527Z,61.11
2018-07-16T04:56:09.337Z,61.57
2018-07-16T04:58:37.167Z,65.43
2018-07-16T05:01:05.275Z,60.91
2018-07-16T05:03:33.087Z,60.83
2018-07-16T05:06:00.843Z,59.47
2018-07-16T05:08:28.670Z,60.41
2018-07-16T05:10:56.573Z,61.02
2018-07-16T05:13:24.369Z,59.83
2018-07-16T05:15:52.200Z,60.67
2018-07-16T05:18:20.073Z,59.83
2018-07-16T05:20:47.867Z,59.67
2018-07-16T05:23:15.739Z,61.45
2018-07-16T05:25:43.515Z,58.95
2018-07-16T05:28:11.282Z,59.97
2018-07-16T05:30:39.111Z,59.40
2018-07-16T05:33:06.932Z,60.15
2018-07-16T05:35:34.790Z,62.66
2018-07-16T05:38:02.595Z,60.65
2018-07-16T05:40:30.383Z,58.77
2018-07-16T05:42:58.251Z,59.22
2018-07-16T05:45:26.092Z,59.06
2018-07-16T05:47:53.887Z,58.29
2018-07-16T05:50:21.819Z,56.84
2018-07-16T05:52:49.648Z,56.56
2018-07-16T05:55:17.535Z,55.41
2018-07-16T05:57:45.323Z,55.01
2018-07-16T06:00:13.136Z,55.47
2018-07-16T06:02:40.915Z,56.59
2018-07-16T06:05:08.748Z,53.54
2018-07-16T06:07:36.570Z,54.27
2018-07-16T06:10:04.415Z,55.87
2018-07-16T06:12:32.232Z,55.26
2018-07-16T06:15:00.007Z,54.54
2018-07-16T06:17:27.771Z,54.50
2018-07-16T06:19:55.620Z,56.00
2018-07-16T06:22:23.429Z,54.19
2018-07-16T06:24:51.268Z,54.11
2018-07-16T06:27:19.095Z,54.45
2018-07-16T06:29:46.927Z,53.82
2018-07-16T06:32:14.725Z,54.00
2018-07-16T06:34:42.527Z,53.55
2018-07-16T06:37:10.341Z,53.01
2018-07-16T06:39:38.236Z,53.02
2018-07-16T06:42:06.211Z,53.46
2018-07-16T06:44:33.971Z,52.74
2018-07-16T06:47:01.828Z,52.52
2018-07-16T06:49:29.635Z,52.11
2018-07-16T06:51:57.452Z,51.46
2018-07-16T06:54:25.323Z,51.66
2018-07-16T06:56:53.107Z,51.77
2018-07-16T06:59:20.927Z,51.84
2018-07-16T07:01:48.747Z,51.27
2018-07-16T07:04:16.539Z,51.82
2018-07-16T07:06:44.396Z,51.81
2018-07-16T07:09:12.223Z,52.11
2018-07-16T07:11:40.000Z,53.36
2018-07-16T07:14:07.835Z,53.21
2018-07-16T07:16:35.692Z,53.51
2018-07-16T07:19:03.556Z,52.93
2018-07-16T07:21:31.303Z,53.35
2018-07-16T07:23:59.163Z,52.82
2018-07-16T07:26:27.050Z,53.51
2018-07-16T07:28:54.790Z,53.64
2018-07-16T07:31:22.623Z,54.24
2018-07-16T07:33:50.428Z,56.89
2018-07-16T07:36:18.244Z,58.26
2018-07-16T07:38:46.033Z,60.43
2018-07-16T07:41:13.891Z,60.46
2018-07-16T07:43:41.720Z,64.98
2018-07-16T07:46:09.588Z,67.73
2018-07-16T07:48:37.389Z,63.52
2018-07-16T07:51:05.304Z,66.51
2018-07-16T07:53:33.115Z,67.08
2018-07-16T07:56:01.148Z,67.55
2018-07-16T07:58:28.979Z,66.42
2018-07-16T08:00:56.995Z,67.03
2018-07-16T08:03:24.853Z,67.25
2018-07-16T08:05:58.290Z,67.78
2018-07-16T08:08:26.055Z,66.63
2018-07-16T08:10:53.917Z,69.83
2018-07-16T08:13:21.744Z,67.94
2018-07-16T08:15:49.743Z,68.27
2018-07-16T08:18:17.556Z,69.24
2018-07-16T08:20:45.343Z,71.04
2018-07-16T08:23:13.159Z,70.06
2018-07-16T08:25:40.987Z,68.98
2018-07-16T08:28:10.821Z,68.82
2018-07-16T08:30:38.647Z,68.76
2018-07-16T08:33:08.912Z,67.53
2018-07-16T08:35:39.382Z,67.29
2018-07-16T08:38:08.412Z,66.44
2018-07-16T08:40:36.239Z,65.07
2018-07-16T08:43:04.124Z,65.53
2018-07-16T08:45:34.346Z,65.65
2018-07-16T08:48:03.774Z,64.93
2018-07-16T08:50:32.197Z,64.29
2018-07-16T08:53:00.126Z,66.95
2018-07-16T08:55:27.974Z,64.73
2018-07-16T08:57:55.785Z,64.02
2018-07-16T09:00:23.723Z,63.75
2018-07-16T09:02:51.510Z,63.74
2018-07-16T09:05:19.291Z,62.55
2018-07-16T09:07:47.091Z,63.07
2018-07-16T09:10:15.032Z,62.48
2018-07-16T09:12:42.824Z,62.27
2018-07-16T09:15:10.648Z,62.35
2018-07-16T09:17:38.494Z,62.34
2018-07-16T09:20:06.384Z,63.46
2018-07-16T09:22:34.196Z,63.68
2018-07-16T09:25:02.116Z,65.73
2018-07-16T09:27:29.997Z,69.40
2018-07-16T09:29:57.800Z,68.99
2018-07-16T09:32:25.624Z,69.91
2018-07-16T09:34:53.460Z,70.87
2018-07-16T09:37:21.291Z,69.01
2018-07-16T09:39:49.075Z,68.81
2018-07-16T09:42:16.955Z,69.32
2018-07-16T09:44:44.756Z,68.83
2018-07-16T09:47:12.597Z,67.06
2018-07-16T09:49:44.938Z,67.76
2018-07-16T09:52:13.052Z,66.96
2018-07-16T09:54:40.895Z,65.27
2018-07-16T09:57:08.680Z,63.89
2018-07-16T09:59:36.503Z,61.90
2018-07-16T10:02:10.119Z,64.17
2018-07-16T10:04:37.961Z,63.54
2018-07-16T10:07:05.909Z,63.43
2018-07-16T10:09:33.842Z,61.63
2018-07-16T10:12:02.177Z,58.85
2018-07-16T10:14:30.029Z,60.00
2018-07-16T10:16:57.887Z,55.39
2018-07-16T10:19:25.694Z,53.97
2018-07-16T10:21:53.535Z,53.62
2018-07-16T10:24:21.359Z,51.38
2018-07-16T10:26:49.164Z,48.64
2018-07-16T10:29:16.936Z,52.40
2018-07-16T10:31:44.730Z,49.03
2018-07-16T10:34:12.461Z,46.96
2018-07-16T10:36:40.271Z,45.72
2018-07-16T10:39:08.105Z,44.70
2018-07-16T10:41:36.207Z,43.33
2018-07-16T10:44:04.135Z,43.14
2018-07-16T10:46:31.966Z,40.50
2018-07-16T10:48:59.771Z,40.00
2018-07-16T10:51:29.710Z,39.03
2018-07-16T10:53:57.542Z,36.59
2018-07-16T10:56:37.059Z,33.33
2018-07-16T10:59:05.256Z,33.09
2018-07-16T11:01:33.128Z,31.49
2018-07-16T11:04:01.020Z,30.24
2018-07-16T11:06:28.911Z,29.97
2018-07-16T11:08:56.800Z,28.82
2018-07-16T11:11:24.561Z,27.31
2018-07-16T11:13:52.408Z,26.26
2018-07-16T11:16:20.185Z,25.69
2018-07-16T11:18:47.959Z,25.71
2018-07-16T11:21:15.825Z,25.37
2018-07-16T11:23:44.846Z,23.89
2018-07-16T11:26:12.864Z,23.90
2018-07-16T11:28:41.175Z,23.35
2018-07-16T11:31:09.086Z,21.68
2018-07-16T11:33:36.935Z,21.21
2018-07-16T11:36:05.203Z,21.19
2018-07-16T11:38:33.094Z,22.12
2018-07-16T11:41:00.938Z,21.33
2018-07-16T11:43:29.225Z,20.98
2018-07-16T11:45:57.284Z,18.89
2018-07-16T11:48:25.091Z,16.40
2018-07-16T11:50:52.910Z,18.49
2018-07-16T11:53:20.683Z,19.55
2018-07-16T11:55:48.438Z,18.29
2018-07-16T11:58:16.199Z,17.74
2018-07-16T12:00:44.019Z,17.64
2018-07-16T12:03:11.752Z,18.40
2018-07-16T12:05:39.553Z,18.54
2018-07-16T12:08:07.503Z,19.38
2018-07-16T12:10:35.628Z,18.58
2018-07-16T12:13:03.456Z,19.33
2018-07-16T12:15:37.652Z,18.21
2018-07-16T12:18:05.460Z,17.86
2018-07-16T12:20:35.206Z,18.96
2018-07-16T12:23:03.412Z,18.31
2018-07-16T12:25:31.644Z,18.05
2018-07-16T12:27:59.555Z,19.42
2018-07-16T12:30:27.347Z,19.79
2018-07-16T12:32:55.579Z,19.66
2018-07-16T12:35:23.279Z,19.18
2018-07-16T12:37:54.183Z,18.76
2018-07-16T12:40:26.261Z,19.29
2018-07-16T12:42:55.827Z,18.83
2018-07-16T12:45:26.928Z,19.42
2018-07-16T12:47:54.691Z,15.46
2018-07-16T12:50:22.527Z,17.80
2018-07-16T12:52:50.604Z,17.49
2018-07-16T12:55:18.440Z,17.08
2018-07-16T12:57:46.280Z,17.91
2018-07-16T13:00:14.059Z,16.85
2018-07-16T13:02:41.887Z,18.14
2018-07-16T13:05:10.594Z,17.74
2018-07-16T13:07:38.435Z,16.63
2018-07-16T13:10:06.343Z,17.77
2018-07-16T13:12:34.203Z,17.58
2018-07-16T13:15:02.020Z,18.67
2018-07-16T13:17:29.783Z,17.46
2018-07-16T13:19:57.587Z,17.97
2018-07-16T13:22:25.399Z,18.20
2018-07-16T13:24:53.201Z,18.49
2018-07-16T13:27:21.024Z,20.84
2018-07-16T13:29:48.932Z,20.44
2018-07-16T13:32:16.640Z,19.82
2018-07-16T13:34:44.463Z,21.63
2018-07-16T13:37:12.362Z,20.40
2018-07-16T13:39:40.119Z,20.57
2018-07-16T13:42:07.899Z,21.09
2018-07-16T13:44:35.714Z,19.11
2018-07-16T13:47:03.511Z,18.78
2018-07-16T13:49:31.364Z,20.84
2018-07-16T13:51:59.264Z,22.67
2018-07-16T13:54:27.085Z,21.52
2018-07-16T13:56:56.499Z,22.99
2018-07-16T13:59:25.412Z,21.52
2018-07-16T14:01:53.160Z,20.51
2018-07-16T14:04:22.556Z,18.85
2018-07-16T14:06:50.445Z,21.32
2018-07-16T14:09:18.603Z,18.64
2018-07-16T14:11:46.367Z,21.86
2018-07-16T14:14:14.134Z,20.01
2018-07-16T14:16:41.920Z,18.52
2018-07-16T14:19:09.753Z,19.13
2018-07-16T14:21:38.256Z,21.10
2018-07-16T14:24:06.163Z,21.94
2018-07-16T14:26:34.006Z,20.12
2018-07-16T14:29:01.859Z,21.21
2018-07-16T14:31:29.607Z,20.91
2018-07-16T14:33:58.144Z,21.14
2018-07-16T14:36:26.735Z,21.58
2018-07-16T14:38:54.548Z,22.01
2018-07-16T14:41:22.507Z,24.10
2018-07-16T14:43:52.447Z,24.87
2018-07-16T14:46:20.264Z,21.06
2018-07-16T14:48:48.032Z,20.30
2018-07-16T14:51:15.960Z,20.51
2018-07-16T14:53:43.727Z,21.84
2018-07-16T14:56:11.463Z,20.62
2018-07-16T14:58:39.701Z,20.91
2018-07-16T15:01:07.523Z,21.36
2018-07-16T15:03:37.310Z,22.25
2018-07-16T15:06:05.263Z,20.86
2018-07-16T15:08:33.580Z,23.28
2018-07-16T15:11:01.387Z,21.05
2018-07-16T15:13:29.221Z,23.41
2018-07-16T15:15:57.047Z,22.17
2018-07-16T15:18:24.868Z,24.84
2018-07-16T15:20:52.897Z,24.39
2018-07-16T15:23:23.631Z,21.09
2018-07-16T15:25:52.160Z,24.18
2018-07-16T15:28:20.928Z,23.13
2018-07-16T15:30:48.711Z,23.54
2018-07-16T15:33:18.217Z,24.06
2018-07-16T15:35:47.237Z,21.00
2018-07-16T15:38:15.347Z,23.86
2018-07-16T15:40:43.753Z,21.36
2018-07-16T15:43:11.508Z,20.94
2018-07-16T15:45:39.385Z,22.43
2018-07-16T15:48:07.168Z,24.45
2018-07-16T15:50:34.852Z,23.10
2018-07-16T15:53:05.498Z,21.84
2018-07-16T15:55:33.825Z,23.73
2018-07-16T15:58:06.070Z,24.25
2018-07-16T16:00:33.940Z,24.96
2018-07-16T16:03:04.805Z,25.02
2018-07-16T16:05:33.349Z,22.40
2018-07-16T16:08:01.252Z,24.60
2018-07-16T16:10:33.823Z,23.77
2018-07-16T16:13:01.683Z,22.94
2018-07-16T16:15:29.392Z,23.58
2018-07-16T16:17:57.251Z,23.69
2018-07-16T16:20:25.119Z,23.78
2018-07-16T16:22:52.920Z,23.16
2018-07-16T16:25:20.787Z,24.38
2018-07-16T16:27:48.619Z,21.96
2018-07-16T16:30:16.392Z,22.15
2018-07-16T16:32:44.307Z,23.18
2018-07-16T16:35:12.051Z,22.21
2018-07-16T16:37:39.935Z,22.56
2018-07-16T16:40:07.771Z,24.15
2018-07-16T16:42:35.612Z,21.65
2018-07-16T16:45:03.431Z,22.72
2018-07-16T16:47:31.185Z,23.64
2018-07-16T16:49:59.031Z,23.41
2018-07-16T16:52:26.815Z,23.02
2018-07-16T16:54:54.619Z,24.33
2018-07-16T16:57:22.375Z,23.42
2018-07-16T16:59:50.183Z,24.42
2018-07-16T17:02:17.979Z,23.55
2018-07-16T17:04:45.748Z,25.14
2018-07-16T17:07:13.697Z,24.18
2018-07-16T17:09:43.079Z,24.34
2018-07-16T17:12:11.859Z,24.78
2018-07-16T17:14:39.739Z,24.51
2018-07-16T17:17:07.511Z,25.09
2018-07-16T17:19:35.279Z,24.97
2018-07-16T17:22:03.267Z,25.66
2018-07-16T17:24:32.489Z,25.20
2018-07-16T17:27:00.376Z,25.28
2018-07-16T17:29:31.839Z,25.23
2018-07-16T17:31:59.660Z,25.67
2018-07-16T17:34:27.435Z,26.64
2018-07-16T17:36:55.200Z,26.68
2018-07-16T17:39:22.983Z,25.98
2018-07-16T17:41:50.731Z,25.74
2018-07-16T17:44:18.532Z,25.65
2018-07-16T17:46:46.368Z,26.08
2018-07-16T17:49:14.257Z,26.14
2018-07-16T17:51:42.246Z,26.67
2018-07-16T17:54:10.307Z,27.57
2018-07-16T17:56:38.405Z,26.80
2018-07-16T17:59:07.556Z,27.39
2018-07-16T18:01:35.587Z,26.39
2018-07-16T18:04:03.455Z,27.68
2018-07-16T18:06:31.359Z,26.90
2018-07-16T18:08:59.139Z,27.55
2018-07-16T18:11:27.064Z,27.46
2018-07-16T18:13:55.048Z,27.69
2018-07-16T18:16:22.824Z,28.44
2018-07-16T18:18:50.565Z,28.69
2018-07-16T18:21:18.336Z,28.08
2018-07-16T18:23:47.679Z,28.61
2018-07-16T18:26:15.622Z,27.70
2018-07-16T18:28:43.366Z,28.43
2018-07-16T18:31:11.207Z,28.62
2018-07-16T18:33:39.031Z,28.89
2018-07-16T18:36:06.928Z,28.76
2018-07-16T18:38:34.865Z,28.94
2018-07-16T18:41:02.904Z,29.78
2018-07-16T18:43:30.787Z,29.61
2018-07-16T18:46:04.267Z,30.87
2018-07-16T18:48:37.134Z,30.99
2018-07-16T18:51:06.432Z,31.52
2018-07-16T18:53:39.363Z,32.93
2018-07-16T18:56:07.196Z,33.99
2018-07-16T18:58:34.967Z,34.03
2018-07-16T19:01:02.986Z,34.55
2018-07-16T19:03:30.934Z,35.15
2018-07-16T19:05:58.735Z,34.98
2018-07-16T19:08:26.645Z,35.16
2018-07-16T19:10:54.383Z,35.89
2018-07-16T19:13:22.357Z,35.53
2018-07-16T19:15:50.075Z,36.33
2018-07-16T19:18:17.927Z,36.22
2018-07-16T19:20:49.717Z,36.61
2018-07-16T19:23:23.631Z,36.93
2018-07-16T19:25:59.728Z,36.99
2018-07-16T19:28:32.983Z,36.99
2018-07-16T19:31:09.261Z,37.61
2018-07-16T19:33:40.914Z,37.64
2018-07-16T19:36:09.241Z,38.48
2018-07-16T19:38:41.492Z,39.39
2018-07-16T19:41:09.430Z,38.41
2018-07-16T19:43:37.697Z,39.26
2018-07-16T19:46:05.483Z,39.04
2018-07-16T19:48:33.387Z,39.36
2018-07-16T19:51:01.538Z,38.82
2018-07-16T19:53:29.359Z,39.43
2018-07-16T19:55:58.756Z,39.64
2018-07-16T19:58:26.620Z,40.14
2018-07-16T20:00:54.446Z,40.59
2018-07-16T20:03:22.295Z,41.49
2018-07-16T20:05:50.109Z,41.62
2018-07-16T20:08:18.701Z,41.35
2018-07-16T20:10:46.599Z,40.69
2018-07-16T20:13:14.792Z,41.25
2018-07-16T20:15:42.798Z,42.46
2018-07-16T20:18:12.928Z,41.63
2018-07-16T20:20:54.305Z,43.12
2018-07-16T20:23:22.211Z,43.03
2018-07-16T20:25:53.980Z,43.31
2018-07-16T20:28:21.954Z,43.05
2018-07-16T20:30:50.264Z,43.02
2018-07-16T20:33:18.323Z,42.60
2018-07-16T20:35:46.552Z,45.09
2018-07-16T20:38:19.212Z,45.51
2018-07-16T20:40:48.414Z,44.84
2018-07-16T20:43:16.355Z,45.13
2018-07-16T20:45:51.564Z,46.28
2018-07-16T20:48:20.056Z,45.69
2018-07-16T20:50:47.900Z,44.68
2018-07-16T20:53:15.707Z,45.65
2018-07-16T20:55:43.514Z,45.11
2018-07-16T20:58:16.186Z,47.57
2018-07-16T21:00:43.967Z,46.37
2018-07-16T21:03:11.836Z,47.44
2018-07-16T21:05:39.583Z,49.37
2018-07-16T21:08:07.359Z,47.12
2018-07-16T21:10:38.011Z,48.64
2018-07-16T21:13:05.798Z,50.32
2018-07-16T21:15:36.333Z,49.47
2018-07-16T21:18:18.192Z,48.61
2018-07-16T21:20:48.185Z,47.50
2018-07-16T21:23:16.037Z,49.96
2018-07-16T21:25:43.879Z,51.55
2018-07-16T21:28:11.647Z,50.96
2018-07-16T21:30:41.699Z,48.56
2018-07-16T21:33:09.539Z,49.88
2018-07-16T21:35:40.262Z,50.69
2018-07-16T21:38:09.611Z,50.25
2018-07-16T21:40:37.518Z,51.73
2018-07-16T21:43:05.551Z,50.97
2018-07-16T21:45:33.500Z,49.65
2018-07-16T21:48:02.021Z,50.70
2018-07-16T21:50:30.835Z,51.48
2018-07-16T21:52:58.636Z,50.42
2018-07-16T21:55:29.653Z,49.79
2018-07-16T21:58:03.384Z,50.70
2018-07-16T22:00:32.370Z,51.87
2018-07-16T22:03:02.992Z,48.83
2018-07-16T22:05:30.799Z,49.31
2018-07-16T22:07:59.465Z,47.53
2018-07-16T22:12:56.095Z,48.91
2018-07-16T22:15:27.872Z,47.19
2018-07-16T22:17:58.075Z,47.08
2018-07-16T22:20:32.901Z,49.12
2018-07-16T22:23:00.839Z,50.77
2018-07-16T22:25:28.881Z,47.43
2018-07-16T22:28:03.317Z,53.53
2018-07-16T22:30:31.882Z,49.15
2018-07-16T22:32:59.707Z,53.79
2018-07-16T22:35:30.360Z,54.22
2018-07-16T22:37:58.906Z,56.24
2018-07-16T22:40:31.127Z,54.58
2018-07-16T22:43:12.934Z,52.13
2018-07-16T22:45:46.392Z,55.10
2018-07-16T22:48:14.184Z,54.81
2018-07-16T22:50:42.012Z,55.75
2018-07-16T22:53:10.876Z,54.05
2018-07-16T22:55:38.755Z,52.06
2018-07-16T22:58:07.086Z,51.62
2018-07-16T23:00:34.971Z,57.44
2018-07-16T23:03:02.912Z,57.84
2018-07-16T23:05:31.366Z,54.26
2018-07-16T23:07:59.467Z,56.67
2018-07-16T23:10:27.389Z,56.50
2018-07-16T23:12:55.186Z,59.86
2018-07-16T23:15:23.083Z,57.73
2018-07-16T23:17:54.680Z,54.86
2018-07-16T23:20:22.552Z,54.57
2018-07-16T23:22:56.195Z,58.71
2018-07-16T23:25:24.148Z,60.70
2018-07-16T23:27:52.194Z,58.03
2018-07-16T23:30:20.021Z,58.90
2018-07-16T23:32:57.762Z,57.40
2018-07-16T23:35:25.678Z,57.33
2018-07-16T23:37:53.468Z,57.87
2018-07-16T23:40:31.934Z,59.05
2018-07-16T23:43:02.006Z,58.98
2018-07-16T23:45:30.125Z,59.59
2018-07-16T23:47:59.431Z,60.97
2018-07-16T23:50:27.421Z,57.91
2018-07-16T23:52:55.228Z,58.93
2018-07-16T23:55:23.080Z,60.21
2018-07-16T23:57:56.417Z,60.60
